sensor_id;sensor_type;location;lat;lon;timestamp;temperature;humidity
7564;DHT22;3823;53.586;10.040;2022-11-21T00:01:32;1.20;80.30
7564;DHT22;3823;53.586;10.040;2022-11-21T00:03:58;1.20;77.30
7564;DHT22;3823;53.586;10.040;2022-11-21T00:06:24;1.20;73.60
7564;DHT22;3823;53.586;10.040;2022-11-21T00:08:50;1.20;70.60
7564;DHT22;3823;53.586;10.040;2022-11-21T00:11:16;1.20;85.30
7564;DHT22;3823;53.586;10.040;2022-11-21T00:13:42;1.20;92.60
7564;DHT22;3823;53.586;10.040;2022-11-21T00:16:11;1.20;93.60
7564;DHT22;3823;53.586;10.040;2022-11-21T00:18:36;1.20;91.50
7564;DHT22;3823;53.586;10.040;2022-11-21T00:21:08;1.20;86.90
7564;DHT22;3823;53.586;10.040;2022-11-21T00:23:34;1.20;83.80
7564;DHT22;3823;53.586;10.040;2022-11-21T00:26:03;1.20;78.90
7564;DHT22;3823;53.586;10.040;2022-11-21T00:28:29;1.20;79.70
7564;DHT22;3823;53.586;10.040;2022-11-21T00:30:55;1.20;76.10
7564;DHT22;3823;53.586;10.040;2022-11-21T00:33:20;1.20;88.40
7564;DHT22;3823;53.586;10.040;2022-11-21T00:35:46;1.20;82.80
7564;DHT22;3823;53.586;10.040;2022-11-21T00:38:11;1.20;74.30
7564;DHT22;3823;53.586;10.040;2022-11-21T00:40:37;1.20;67.40
7564;DHT22;3823;53.586;10.040;2022-11-21T00:43:02;1.20;67.90
7564;DHT22;3823;53.586;10.040;2022-11-21T00:45:27;1.20;73.50
7564;DHT22;3823;53.586;10.040;2022-11-21T00:47:53;1.20;69.00
7564;DHT22;3823;53.586;10.040;2022-11-21T00:50:18;1.10;66.70
7564;DHT22;3823;53.586;10.040;2022-11-21T00:52:44;1.10;64.80
7564;DHT22;3823;53.586;10.040;2022-11-21T00:55:09;1.20;65.50
7564;DHT22;3823;53.586;10.040;2022-11-21T00:57:35;1.10;64.20
7564;DHT22;3823;53.586;10.040;2022-11-21T01:00:00;1.10;70.70
7564;DHT22;3823;53.586;10.040;2022-11-21T01:02:26;1.10;78.10
7564;DHT22;3823;53.586;10.040;2022-11-21T01:04:51;1.20;82.00
7564;DHT22;3823;53.586;10.040;2022-11-21T01:07:17;1.20;68.60
7564;DHT22;3823;53.586;10.040;2022-11-21T01:09:42;1.20;63.50
7564;DHT22;3823;53.586;10.040;2022-11-21T01:12:08;1.20;64.70
7564;DHT22;3823;53.586;10.040;2022-11-21T01:14:34;1.20;65.70
7564;DHT22;3823;53.586;10.040;2022-11-21T01:16:59;1.20;62.20
7564;DHT22;3823;53.586;10.040;2022-11-21T01:19:25;1.20;57.10
7564;DHT22;3823;53.586;10.040;2022-11-21T01:21:50;1.10;57.20
7564;DHT22;3823;53.586;10.040;2022-11-21T01:24:16;1.10;57.20
7564;DHT22;3823;53.586;10.040;2022-11-21T01:26:41;1.20;66.70
7564;DHT22;3823;53.586;10.040;2022-11-21T01:29:08;1.20;71.60
7564;DHT22;3823;53.586;10.040;2022-11-21T01:31:34;1.20;65.20
7564;DHT22;3823;53.586;10.040;2022-11-21T01:34:00;1.20;63.10
7564;DHT22;3823;53.586;10.040;2022-11-21T01:36:31;1.20;54.20
7564;DHT22;3823;53.586;10.040;2022-11-21T01:38:59;1.10;47.60
7564;DHT22;3823;53.586;10.040;2022-11-21T01:41:31;1.10;48.40
7564;DHT22;3823;53.586;10.040;2022-11-21T01:43:58;1.10;54.70
7564;DHT22;3823;53.586;10.040;2022-11-21T01:46:25;1.00;52.90
7564;DHT22;3823;53.586;10.040;2022-11-21T01:56:34;1.10;45.60
7564;DHT22;3823;53.586;10.040;2022-11-21T01:59:03;1.10;50.90
7564;DHT22;3823;53.586;10.040;2022-11-21T02:01:29;1.10;35.40
7564;DHT22;3823;53.586;10.040;2022-11-21T02:03:55;1.10;37.80
7564;DHT22;3823;53.586;10.040;2022-11-21T02:06:23;1.10;45.30
7564;DHT22;3823;53.586;10.040;2022-11-21T02:08:49;1.10;30.40
7564;DHT22;3823;53.586;10.040;2022-11-21T02:14:04;1.00;33.80
7564;DHT22;3823;53.586;10.040;2022-11-21T02:16:29;1.00;35.50
7564;DHT22;3823;53.586;10.040;2022-11-21T02:18:55;1.00;34.00
7564;DHT22;3823;53.586;10.040;2022-11-21T02:21:27;1.00;28.40
7564;DHT22;3823;53.586;10.040;2022-11-21T02:26:43;1.00;29.80
7564;DHT22;3823;53.586;10.040;2022-11-21T02:29:11;1.00;21.40
7564;DHT22;3823;53.586;10.040;2022-11-21T02:31:36;1.00;24.00
7564;DHT22;3823;53.586;10.040;2022-11-21T02:34:02;1.00;27.40
7564;DHT22;3823;53.586;10.040;2022-11-21T02:36:46;1.00;24.10
7564;DHT22;3823;53.586;10.040;2022-11-21T02:39:18;1.00;29.00
7564;DHT22;3823;53.586;10.040;2022-11-21T02:41:50;1.00;21.70
7564;DHT22;3823;53.586;10.040;2022-11-21T02:44:27;1.00;16.40
7564;DHT22;3823;53.586;10.040;2022-11-21T02:46:53;1.00;13.30
7564;DHT22;3823;53.586;10.040;2022-11-21T02:49:44;1.10;6.10
7564;DHT22;3823;53.586;10.040;2022-11-21T02:52:12;1.10;12.10
7564;DHT22;3823;53.586;10.040;2022-11-21T02:54:38;1.10;11.80
7564;DHT22;3823;53.586;10.040;2022-11-21T02:57:03;1.00;4.40
7564;DHT22;3823;53.586;10.040;2022-11-21T02:59:29;1.00;12.30
7564;DHT22;3823;53.586;10.040;2022-11-21T03:01:54;0.90;19.90
7564;DHT22;3823;53.586;10.040;2022-11-21T03:04:24;0.90;19.10
7564;DHT22;3823;53.586;10.040;2022-11-21T03:06:50;0.90;12.10
7564;DHT22;3823;53.586;10.040;2022-11-21T03:09:16;0.90;11.00
7564;DHT22;3823;53.586;10.040;2022-11-21T03:11:41;0.90;4.00
7564;DHT22;3823;53.586;10.040;2022-11-21T03:14:07;0.90;3.60
7564;DHT22;3823;53.586;10.040;2022-11-21T03:16:32;1.00;1.00
7564;DHT22;3823;53.586;10.040;2022-11-21T03:18:58;1.00;1.00
7564;DHT22;3823;53.586;10.040;2022-11-21T03:21:24;1.00;1.00
7564;DHT22;3823;53.586;10.040;2022-11-21T03:23:49;0.90;1.00
7564;DHT22;3823;53.586;10.040;2022-11-21T03:26:15;0.90;1.00
7564;DHT22;3823;53.586;10.040;2022-11-21T03:28:41;0.80;1.00
7564;DHT22;3823;53.586;10.040;2022-11-21T03:31:07;0.80;1.00
7564;DHT22;3823;53.586;10.040;2022-11-21T03:33:32;0.90;1.00
7564;DHT22;3823;53.586;10.040;2022-11-21T03:35:58;0.90;1.00
7564;DHT22;3823;53.586;10.040;2022-11-21T03:38:23;0.90;1.00
7564;DHT22;3823;53.586;10.040;2022-11-21T03:40:49;0.90;1.00
7564;DHT22;3823;53.586;10.040;2022-11-21T03:43:15;0.90;1.00
7564;DHT22;3823;53.586;10.040;2022-11-21T03:45:40;0.90;1.00
7564;DHT22;3823;53.586;10.040;2022-11-21T03:48:06;0.90;1.00
7564;DHT22;3823;53.586;10.040;2022-11-21T03:50:31;0.80;1.00
7564;DHT22;3823;53.586;10.040;2022-11-21T03:52:57;0.80;1.00
7564;DHT22;3823;53.586;10.040;2022-11-21T03:55:22;0.80;1.00
7564;DHT22;3823;53.586;10.040;2022-11-21T03:57:48;0.80;1.00
7564;DHT22;3823;53.586;10.040;2022-11-21T04:00:14;0.90;1.00
7564;DHT22;3823;53.586;10.040;2022-11-21T04:02:39;0.80;1.00
7564;DHT22;3823;53.586;10.040;2022-11-21T04:05:05;0.90;1.00
7564;DHT22;3823;53.586;10.040;2022-11-21T04:07:31;0.80;1.00
7564;DHT22;3823;53.586;10.040;2022-11-21T04:09:56;0.80;1.40
7564;DHT22;3823;53.586;10.040;2022-11-21T04:12:22;0.90;3.90
7564;DHT22;3823;53.586;10.040;2022-11-21T04:14:47;0.80;8.40
7564;DHT22;3823;53.586;10.040;2022-11-21T04:17:13;0.80;12.90
7564;DHT22;3823;53.586;10.040;2022-11-21T04:19:38;0.80;14.90
7564;DHT22;3823;53.586;10.040;2022-11-21T04:22:04;0.80;19.50
7564;DHT22;3823;53.586;10.040;2022-11-21T04:24:29;0.80;17.60
7564;DHT22;3823;53.586;10.040;2022-11-21T04:26:55;0.70;20.60
7564;DHT22;3823;53.586;10.040;2022-11-21T04:29:20;0.70;26.90
7564;DHT22;3823;53.586;10.040;2022-11-21T04:31:46;0.70;38.70
7564;DHT22;3823;53.586;10.040;2022-11-21T04:34:11;0.60;43.70
7564;DHT22;3823;53.586;10.040;2022-11-21T04:36:37;0.60;45.70
7564;DHT22;3823;53.586;10.040;2022-11-21T04:39:02;0.70;40.00
7564;DHT22;3823;53.586;10.040;2022-11-21T04:41:28;0.70;39.70
7564;DHT22;3823;53.586;10.040;2022-11-21T04:43:54;0.60;29.90
7564;DHT22;3823;53.586;10.040;2022-11-21T04:46:19;0.60;34.90
7564;DHT22;3823;53.586;10.040;2022-11-21T04:48:45;0.50;40.90
7564;DHT22;3823;53.586;10.040;2022-11-21T04:51:10;0.50;38.90
7564;DHT22;3823;53.586;10.040;2022-11-21T04:53:36;0.50;43.60
7564;DHT22;3823;53.586;10.040;2022-11-21T04:56:05;0.50;42.60
7564;DHT22;3823;53.586;10.040;2022-11-21T04:58:31;0.50;42.50
7564;DHT22;3823;53.586;10.040;2022-11-21T05:00:56;0.50;40.70
7564;DHT22;3823;53.586;10.040;2022-11-21T05:03:22;0.50;33.10
7564;DHT22;3823;53.586;10.040;2022-11-21T05:05:47;0.50;32.10
7564;DHT22;3823;53.586;10.040;2022-11-21T05:08:13;0.50;35.10
7564;DHT22;3823;53.586;10.040;2022-11-21T05:10:38;0.40;32.50
7564;DHT22;3823;53.586;10.040;2022-11-21T05:13:23;0.40;37.20
7564;DHT22;3823;53.586;10.040;2022-11-21T05:15:55;0.40;42.20
7564;DHT22;3823;53.586;10.040;2022-11-21T05:18:20;0.40;35.70
7564;DHT22;3823;53.586;10.040;2022-11-21T05:20:46;0.40;40.50
7564;DHT22;3823;53.586;10.040;2022-11-21T05:23:11;0.30;47.60
7564;DHT22;3823;53.586;10.040;2022-11-21T05:25:37;0.30;51.50
7564;DHT22;3823;53.586;10.040;2022-11-21T05:28:02;0.40;50.80
7564;DHT22;3823;53.586;10.040;2022-11-21T05:30:28;0.30;54.60
7564;DHT22;3823;53.586;10.040;2022-11-21T05:32:53;0.30;61.10
7564;DHT22;3823;53.586;10.040;2022-11-21T05:35:19;0.20;69.10
7564;DHT22;3823;53.586;10.040;2022-11-21T05:37:44;0.10;81.80
7564;DHT22;3823;53.586;10.040;2022-11-21T05:40:10;0.10;92.90
7564;DHT22;3823;53.586;10.040;2022-11-21T05:42:41;0.10;96.90
7564;DHT22;3823;53.586;10.040;2022-11-21T05:45:25;0.10;96.10
7564;DHT22;3823;53.586;10.040;2022-11-21T05:47:51;0.20;96.90
7564;DHT22;3823;53.586;10.040;2022-11-21T05:50:16;0.20;90.60
7564;DHT22;3823;53.586;10.040;2022-11-21T05:52:42;0.30;76.70
7564;DHT22;3823;53.586;10.040;2022-11-21T05:55:07;0.30;68.00
7564;DHT22;3823;53.586;10.040;2022-11-21T05:57:33;0.30;56.50
7564;DHT22;3823;53.586;10.040;2022-11-21T05:59:58;0.30;54.40
7564;DHT22;3823;53.586;10.040;2022-11-21T06:02:24;0.30;59.00
7564;DHT22;3823;53.586;10.040;2022-11-21T06:05:08;0.20;61.10
7564;DHT22;3823;53.586;10.040;2022-11-21T06:07:34;0.30;71.40
7564;DHT22;3823;53.586;10.040;2022-11-21T06:09:59;0.20;83.50
7564;DHT22;3823;53.586;10.040;2022-11-21T06:12:25;0.10;91.90
7564;DHT22;3823;53.586;10.040;2022-11-21T06:14:50;0.20;92.80
7564;DHT22;3823;53.586;10.040;2022-11-21T06:17:16;0.10;94.70
7564;DHT22;3823;53.586;10.040;2022-11-21T06:19:41;0.10;99.50
7564;DHT22;3823;53.586;10.040;2022-11-21T06:22:07;0.00;99.70
7564;DHT22;3823;53.586;10.040;2022-11-21T06:24:32;0.20;99.90
7564;DHT22;3823;53.586;10.040;2022-11-21T06:26:58;0.20;78.40
7564;DHT22;3823;53.586;10.040;2022-11-21T06:29:23;0.10;95.30
7564;DHT22;3823;53.586;10.040;2022-11-21T06:31:49;0.10;99.90
7564;DHT22;3823;53.586;10.040;2022-11-21T06:34:15;0.10;99.90
7564;DHT22;3823;53.586;10.040;2022-11-21T06:36:40;0.00;99.90
7564;DHT22;3823;53.586;10.040;2022-11-21T06:39:06;0.00;99.90
7564;DHT22;3823;53.586;10.040;2022-11-21T06:41:32;0.00;99.90
7564;DHT22;3823;53.586;10.040;2022-11-21T06:43:58;0.20;99.90
7564;DHT22;3823;53.586;10.040;2022-11-21T06:46:25;0.20;91.90
7564;DHT22;3823;53.586;10.040;2022-11-21T06:48:51;0.20;87.60
7564;DHT22;3823;53.586;10.040;2022-11-21T06:51:18;0.10;90.00
7564;DHT22;3823;53.586;10.040;2022-11-21T06:53:45;0.10;91.60
7564;DHT22;3823;53.586;10.040;2022-11-21T06:56:11;0.10;93.70
7564;DHT22;3823;53.586;10.040;2022-11-21T06:58:36;0.00;97.90
7564;DHT22;3823;53.586;10.040;2022-11-21T07:01:04;0.10;99.90
7564;DHT22;3823;53.586;10.040;2022-11-21T07:03:30;0.10;94.00
7564;DHT22;3823;53.586;10.040;2022-11-21T07:05:55;0.20;98.10
7564;DHT22;3823;53.586;10.040;2022-11-21T07:08:25;0.20;83.50
7564;DHT22;3823;53.586;10.040;2022-11-21T07:10:51;0.20;92.50
7564;DHT22;3823;53.586;10.040;2022-11-21T07:13:17;0.20;92.70
7564;DHT22;3823;53.586;10.040;2022-11-21T07:15:53;0.20;91.90
7564;DHT22;3823;53.586;10.040;2022-11-21T07:18:20;0.20;76.10
7564;DHT22;3823;53.586;10.040;2022-11-21T07:20:47;0.10;99.60
7564;DHT22;3823;53.586;10.040;2022-11-21T07:23:13;0.10;99.90
7564;DHT22;3823;53.586;10.040;2022-11-21T07:25:38;0.10;99.90
7564;DHT22;3823;53.586;10.040;2022-11-21T07:28:05;0.10;99.90
7564;DHT22;3823;53.586;10.040;2022-11-21T07:30:31;0.20;98.60
7564;DHT22;3823;53.586;10.040;2022-11-21T07:32:58;0.10;96.90
7564;DHT22;3823;53.586;10.040;2022-11-21T07:35:24;-0.10;99.90
7564;DHT22;3823;53.586;10.040;2022-11-21T07:37:50;-0.10;99.90
7564;DHT22;3823;53.586;10.040;2022-11-21T07:40:16;0.00;99.90
7564;DHT22;3823;53.586;10.040;2022-11-21T07:42:42;0.00;99.90
7564;DHT22;3823;53.586;10.040;2022-11-21T07:45:08;0.20;99.90
7564;DHT22;3823;53.586;10.040;2022-11-21T07:47:33;0.60;85.10
7564;DHT22;3823;53.586;10.040;2022-11-21T07:49:59;1.00;31.40
7564;DHT22;3823;53.586;10.040;2022-11-21T07:52:24;1.00;3.60
7564;DHT22;3823;53.586;10.040;2022-11-21T07:54:50;0.90;10.60
7564;DHT22;3823;53.586;10.040;2022-11-21T07:57:16;0.90;8.80
7564;DHT22;3823;53.586;10.040;2022-11-21T07:59:41;0.80;23.50
7564;DHT22;3823;53.586;10.040;2022-11-21T08:02:19;1.00;16.30
7564;DHT22;3823;53.586;10.040;2022-11-21T08:04:46;1.30;1.00
7564;DHT22;3823;53.586;10.040;2022-11-21T08:07:11;1.20;1.00
7564;DHT22;3823;53.586;10.040;2022-11-21T08:09:37;1.00;1.00
7564;DHT22;3823;53.586;10.040;2022-11-21T08:12:03;0.80;1.00
7564;DHT22;3823;53.586;10.040;2022-11-21T08:14:28;0.70;10.90
7564;DHT22;3823;53.586;10.040;2022-11-21T08:16:54;0.80;28.40
7564;DHT22;3823;53.586;10.040;2022-11-21T08:19:19;1.30;15.90
7564;DHT22;3823;53.586;10.040;2022-11-21T08:21:45;1.70;1.00
7564;DHT22;3823;53.586;10.040;2022-11-21T08:24:10;1.90;1.00
7564;DHT22;3823;53.586;10.040;2022-11-21T08:26:42;2.10;1.00
7564;DHT22;3823;53.586;10.040;2022-11-21T08:29:09;2.30;1.00
7564;DHT22;3823;53.586;10.040;2022-11-21T08:31:36;2.40;1.00
7564;DHT22;3823;53.586;10.040;2022-11-21T08:34:01;2.50;1.00
7564;DHT22;3823;53.586;10.040;2022-11-21T08:36:27;2.40;1.00
7564;DHT22;3823;53.586;10.040;2022-11-21T08:38:52;2.50;1.00
7564;DHT22;3823;53.586;10.040;2022-11-21T08:41:18;2.60;1.00
7564;DHT22;3823;53.586;10.040;2022-11-21T08:44:03;2.70;1.00
7564;DHT22;3823;53.586;10.040;2022-11-21T08:46:29;2.90;1.00
7564;DHT22;3823;53.586;10.040;2022-11-21T08:48:58;3.10;1.00
7564;DHT22;3823;53.586;10.040;2022-11-21T08:51:23;3.10;1.00
7564;DHT22;3823;53.586;10.040;2022-11-21T08:53:49;3.30;1.00
7564;DHT22;3823;53.586;10.040;2022-11-21T08:56:15;3.30;1.00
7564;DHT22;3823;53.586;10.040;2022-11-21T08:58:55;3.50;1.00
7564;DHT22;3823;53.586;10.040;2022-11-21T09:01:22;3.90;1.00
7564;DHT22;3823;53.586;10.040;2022-11-21T09:03:48;4.00;1.00
7564;DHT22;3823;53.586;10.040;2022-11-21T09:06:13;4.00;1.00
7564;DHT22;3823;53.586;10.040;2022-11-21T09:08:39;4.10;1.00
7564;DHT22;3823;53.586;10.040;2022-11-21T09:11:06;4.30;1.00
7564;DHT22;3823;53.586;10.040;2022-11-21T09:13:32;4.20;1.00
7564;DHT22;3823;53.586;10.040;2022-11-21T09:15:59;4.30;1.00
7564;DHT22;3823;53.586;10.040;2022-11-21T09:18:43;4.40;1.00
7564;DHT22;3823;53.586;10.040;2022-11-21T09:21:16;4.70;1.00
7564;DHT22;3823;53.586;10.040;2022-11-21T09:23:42;4.70;1.00
7564;DHT22;3823;53.586;10.040;2022-11-21T09:26:08;4.70;1.00
7564;DHT22;3823;53.586;10.040;2022-11-21T09:28:34;4.90;1.00
7564;DHT22;3823;53.586;10.040;2022-11-21T09:31:02;4.90;1.00
7564;DHT22;3823;53.586;10.040;2022-11-21T09:33:27;4.40;1.00
7564;DHT22;3823;53.586;10.040;2022-11-21T09:35:53;4.30;1.00
7564;DHT22;3823;53.586;10.040;2022-11-21T09:38:19;4.50;1.00
7564;DHT22;3823;53.586;10.040;2022-11-21T09:40:46;4.80;1.00
7564;DHT22;3823;53.586;10.040;2022-11-21T09:43:42;5.20;1.00
7564;DHT22;3823;53.586;10.040;2022-11-21T09:46:14;5.30;1.00
7564;DHT22;3823;53.586;10.040;2022-11-21T09:48:56;5.60;1.00
7564;DHT22;3823;53.586;10.040;2022-11-21T09:51:25;5.50;1.00
7564;DHT22;3823;53.586;10.040;2022-11-21T09:53:59;5.50;1.00
7564;DHT22;3823;53.586;10.040;2022-11-21T09:56:27;5.80;1.00
7564;DHT22;3823;53.586;10.040;2022-11-21T09:59:11;5.70;1.00
7564;DHT22;3823;53.586;10.040;2022-11-21T10:01:40;5.70;1.00
7564;DHT22;3823;53.586;10.040;2022-11-21T10:04:06;6.20;1.00
7564;DHT22;3823;53.586;10.040;2022-11-21T10:06:38;6.10;1.00
7564;DHT22;3823;53.586;10.040;2022-11-21T10:09:33;6.30;1.00
7564;DHT22;3823;53.586;10.040;2022-11-21T10:18:01;6.70;1.00
7564;DHT22;3823;53.586;10.040;2022-11-21T10:23:34;6.50;1.00
7564;DHT22;3823;53.586;10.040;2022-11-21T10:26:22;6.70;1.00
7564;DHT22;3823;53.586;10.040;2022-11-21T10:28:58;6.70;1.00
7564;DHT22;3823;53.586;10.040;2022-11-21T10:31:28;6.30;1.00
7564;DHT22;3823;53.586;10.040;2022-11-21T10:33:57;6.30;1.00
7564;DHT22;3823;53.586;10.040;2022-11-21T10:36:32;6.10;1.00
7564;DHT22;3823;53.586;10.040;2022-11-21T10:39:09;6.20;1.00
7564;DHT22;3823;53.586;10.040;2022-11-21T10:47:22;5.80;1.00
7564;DHT22;3823;53.586;10.040;2022-11-21T10:52:41;6.00;1.00
7564;DHT22;3823;53.586;10.040;2022-11-21T10:55:11;5.80;1.00
7564;DHT22;3823;53.586;10.040;2022-11-21T11:02:39;6.00;1.00
7564;DHT22;3823;53.586;10.040;2022-11-21T11:05:20;6.00;1.00
7564;DHT22;3823;53.586;10.040;2022-11-21T11:08:02;6.10;1.00
7564;DHT22;3823;53.586;10.040;2022-11-21T11:10:29;6.10;1.00
7564;DHT22;3823;53.586;10.040;2022-11-21T11:12:56;6.00;1.00
7564;DHT22;3823;53.586;10.040;2022-11-21T11:19:00;6.70;1.00
7564;DHT22;3823;53.586;10.040;2022-11-21T11:21:41;6.70;1.00
7564;DHT22;3823;53.586;10.040;2022-11-21T11:29:22;6.50;1.00
7564;DHT22;3823;53.586;10.040;2022-11-21T11:34:40;6.50;1.00
7564;DHT22;3823;53.586;10.040;2022-11-21T11:48:36;6.70;1.00
7564;DHT22;3823;53.586;10.040;2022-11-21T11:51:39;7.00;1.00
7564;DHT22;3823;53.586;10.040;2022-11-21T11:54:17;6.70;1.00
7564;DHT22;3823;53.586;10.040;2022-11-21T11:56:44;6.70;1.00
7564;DHT22;3823;53.586;10.040;2022-11-21T11:59:15;6.80;1.00
7564;DHT22;3823;53.586;10.040;2022-11-21T12:02:05;6.80;1.00
7564;DHT22;3823;53.586;10.040;2022-11-21T12:04:44;6.80;1.00
7564;DHT22;3823;53.586;10.040;2022-11-21T12:07:18;6.90;1.00
7564;DHT22;3823;53.586;10.040;2022-11-21T12:10:03;7.00;1.00
7564;DHT22;3823;53.586;10.040;2022-11-21T12:12:42;7.00;1.00
7564;DHT22;3823;53.586;10.040;2022-11-21T12:21:03;6.90;1.00
7564;DHT22;3823;53.586;10.040;2022-11-21T12:23:34;6.80;1.00
7564;DHT22;3823;53.586;10.040;2022-11-21T12:43:40;6.00;1.00
7564;DHT22;3823;53.586;10.040;2022-11-21T12:46:25;5.90;1.00
7564;DHT22;3823;53.586;10.040;2022-11-21T12:49:14;5.70;1.00
7564;DHT22;3823;53.586;10.040;2022-11-21T12:52:11;5.80;1.00
7564;DHT22;3823;53.586;10.040;2022-11-21T12:57:56;5.50;1.00
7564;DHT22;3823;53.586;10.040;2022-11-21T13:05:49;5.50;1.00
7564;DHT22;3823;53.586;10.040;2022-11-21T13:08:20;5.60;1.00
7564;DHT22;3823;53.586;10.040;2022-11-21T13:13:58;5.20;1.00
7564;DHT22;3823;53.586;10.040;2022-11-21T13:16:26;5.00;1.00
7564;DHT22;3823;53.586;10.040;2022-11-21T13:21:59;5.00;1.00
7564;DHT22;3823;53.586;10.040;2022-11-21T13:32:55;4.90;1.00
7564;DHT22;3823;53.586;10.040;2022-11-21T13:38:05;4.80;1.00
7564;DHT22;3823;53.586;10.040;2022-11-21T13:40:36;4.60;1.00
7564;DHT22;3823;53.586;10.040;2022-11-21T13:45:38;4.70;1.00
7564;DHT22;3823;53.586;10.040;2022-11-21T14:08:25;4.50;1.00
7564;DHT22;3823;53.586;10.040;2022-11-21T14:10:52;4.50;1.00
7564;DHT22;3823;53.586;10.040;2022-11-21T14:13:30;4.50;1.00
7564;DHT22;3823;53.586;10.040;2022-11-21T14:18:43;4.30;1.00
7564;DHT22;3823;53.586;10.040;2022-11-21T14:21:30;4.30;1.00
7564;DHT22;3823;53.586;10.040;2022-11-21T14:24:00;4.40;1.00
7564;DHT22;3823;53.586;10.040;2022-11-21T14:26:32;4.30;1.00
7564;DHT22;3823;53.586;10.040;2022-11-21T14:29:18;4.20;1.00
7564;DHT22;3823;53.586;10.040;2022-11-21T14:31:47;4.00;1.00
7564;DHT22;3823;53.586;10.040;2022-11-21T14:34:23;4.00;1.00
7564;DHT22;3823;53.586;10.040;2022-11-21T14:36:49;3.90;1.00
7564;DHT22;3823;53.586;10.040;2022-11-21T14:39:16;3.80;1.00
7564;DHT22;3823;53.586;10.040;2022-11-21T14:41:47;3.80;1.00
7564;DHT22;3823;53.586;10.040;2022-11-21T14:44:15;3.80;1.00
7564;DHT22;3823;53.586;10.040;2022-11-21T14:46:42;3.90;1.00
7564;DHT22;3823;53.586;10.040;2022-11-21T14:51:57;3.90;1.00
7564;DHT22;3823;53.586;10.040;2022-11-21T14:54:28;3.90;1.00
7564;DHT22;3823;53.586;10.040;2022-11-21T14:59:24;3.70;1.00
7564;DHT22;3823;53.586;10.040;2022-11-21T15:01:56;3.70;1.00
7564;DHT22;3823;53.586;10.040;2022-11-21T15:04:26;3.60;1.00
7564;DHT22;3823;53.586;10.040;2022-11-21T15:06:52;3.60;1.00
7564;DHT22;3823;53.586;10.040;2022-11-21T15:09:18;3.50;1.00
7564;DHT22;3823;53.586;10.040;2022-11-21T15:14:27;3.60;1.00
7564;DHT22;3823;53.586;10.040;2022-11-21T15:16:55;3.60;1.00
7564;DHT22;3823;53.586;10.040;2022-11-21T15:19:24;3.50;1.00
7564;DHT22;3823;53.586;10.040;2022-11-21T15:21:52;3.50;1.00
7564;DHT22;3823;53.586;10.040;2022-11-21T15:27:29;3.40;1.00
7564;DHT22;3823;53.586;10.040;2022-11-21T15:30:05;3.40;1.00
7564;DHT22;3823;53.586;10.040;2022-11-21T15:32:31;3.20;1.00
7564;DHT22;3823;53.586;10.040;2022-11-21T15:34:57;3.20;1.00
7564;DHT22;3823;53.586;10.040;2022-11-21T15:37:22;3.10;1.00
7564;DHT22;3823;53.586;10.040;2022-11-21T15:39:50;2.90;1.00
7564;DHT22;3823;53.586;10.040;2022-11-21T15:47:24;2.90;1.00
7564;DHT22;3823;53.586;10.040;2022-11-21T15:49:51;2.90;1.00
7564;DHT22;3823;53.586;10.040;2022-11-21T15:52:17;3.00;1.00
7564;DHT22;3823;53.586;10.040;2022-11-21T15:54:42;2.90;1.00
7564;DHT22;3823;53.586;10.040;2022-11-21T15:57:08;3.00;1.00
7564;DHT22;3823;53.586;10.040;2022-11-21T15:59:34;2.90;1.00
7564;DHT22;3823;53.586;10.040;2022-11-21T16:01:59;2.90;1.00
7564;DHT22;3823;53.586;10.040;2022-11-21T16:04:25;2.80;1.00
7564;DHT22;3823;53.586;10.040;2022-11-21T16:06:52;2.90;1.00
7564;DHT22;3823;53.586;10.040;2022-11-21T16:09:17;2.80;1.00
7564;DHT22;3823;53.586;10.040;2022-11-21T16:11:43;2.80;1.00
7564;DHT22;3823;53.586;10.040;2022-11-21T16:14:12;2.70;1.00
7564;DHT22;3823;53.586;10.040;2022-11-21T16:16:40;2.60;1.00
7564;DHT22;3823;53.586;10.040;2022-11-21T16:19:06;2.50;1.00
7564;DHT22;3823;53.586;10.040;2022-11-21T16:21:32;2.50;1.00
7564;DHT22;3823;53.586;10.040;2022-11-21T16:23:58;2.30;1.00
7564;DHT22;3823;53.586;10.040;2022-11-21T16:26:23;2.20;1.00
7564;DHT22;3823;53.586;10.040;2022-11-21T16:28:53;2.20;1.00
7564;DHT22;3823;53.586;10.040;2022-11-21T16:31:21;2.10;1.00
7564;DHT22;3823;53.586;10.040;2022-11-21T16:33:47;2.10;1.00
7564;DHT22;3823;53.586;10.040;2022-11-21T16:36:12;2.10;1.00
7564;DHT22;3823;53.586;10.040;2022-11-21T16:38:43;2.10;1.00
7564;DHT22;3823;53.586;10.040;2022-11-21T16:41:09;2.10;1.00
7564;DHT22;3823;53.586;10.040;2022-11-21T16:43:34;2.10;1.00
7564;DHT22;3823;53.586;10.040;2022-11-21T16:46:07;2.10;1.00
7564;DHT22;3823;53.586;10.040;2022-11-21T16:48:33;2.10;1.00
7564;DHT22;3823;53.586;10.040;2022-11-21T16:51:09;2.00;1.00
7564;DHT22;3823;53.586;10.040;2022-11-21T16:53:35;1.90;1.00
7564;DHT22;3823;53.586;10.040;2022-11-21T16:56:01;1.80;1.00
7564;DHT22;3823;53.586;10.040;2022-11-21T16:58:26;1.90;1.00
7564;DHT22;3823;53.586;10.040;2022-11-21T17:00:52;1.80;1.00
7564;DHT22;3823;53.586;10.040;2022-11-21T17:03:17;1.80;1.00
7564;DHT22;3823;53.586;10.040;2022-11-21T17:05:43;1.80;1.00
7564;DHT22;3823;53.586;10.040;2022-11-21T17:08:20;1.80;1.00
7564;DHT22;3823;53.586;10.040;2022-11-21T17:10:45;1.80;1.00
7564;DHT22;3823;53.586;10.040;2022-11-21T17:13:10;1.90;1.00
7564;DHT22;3823;53.586;10.040;2022-11-21T17:15:36;1.90;1.00
7564;DHT22;3823;53.586;10.040;2022-11-21T17:18:02;2.00;1.00
7564;DHT22;3823;53.586;10.040;2022-11-21T17:20:27;1.90;1.00
7564;DHT22;3823;53.586;10.040;2022-11-21T17:22:53;1.80;1.00
7564;DHT22;3823;53.586;10.040;2022-11-21T17:25:18;1.80;1.00
7564;DHT22;3823;53.586;10.040;2022-11-21T17:27:44;1.70;1.00
7564;DHT22;3823;53.586;10.040;2022-11-21T17:30:09;1.70;1.00
7564;DHT22;3823;53.586;10.040;2022-11-21T17:32:35;1.70;1.00
7564;DHT22;3823;53.586;10.040;2022-11-21T17:35:01;1.70;1.00
7564;DHT22;3823;53.586;10.040;2022-11-21T17:37:26;1.70;1.00
7564;DHT22;3823;53.586;10.040;2022-11-21T17:39:52;1.50;1.00
7564;DHT22;3823;53.586;10.040;2022-11-21T17:42:17;1.30;1.00
7564;DHT22;3823;53.586;10.040;2022-11-21T17:44:43;1.40;1.00
7564;DHT22;3823;53.586;10.040;2022-11-21T17:47:08;1.40;1.00
7564;DHT22;3823;53.586;10.040;2022-11-21T17:49:34;1.40;1.00
7564;DHT22;3823;53.586;10.040;2022-11-21T17:52:03;1.20;1.00
7564;DHT22;3823;53.586;10.040;2022-11-21T17:54:29;1.20;1.00
7564;DHT22;3823;53.586;10.040;2022-11-21T17:56:54;1.10;1.00
7564;DHT22;3823;53.586;10.040;2022-11-21T17:59:20;1.00;1.00
7564;DHT22;3823;53.586;10.040;2022-11-21T18:01:46;0.90;1.00
7564;DHT22;3823;53.586;10.040;2022-11-21T18:04:11;1.00;1.00
7564;DHT22;3823;53.586;10.040;2022-11-21T18:06:38;1.00;1.00
7564;DHT22;3823;53.586;10.040;2022-11-21T18:09:06;0.80;1.00
7564;DHT22;3823;53.586;10.040;2022-11-21T18:11:34;0.80;1.00
7564;DHT22;3823;53.586;10.040;2022-11-21T18:13:59;0.70;1.00
7564;DHT22;3823;53.586;10.040;2022-11-21T18:16:27;0.70;1.00
7564;DHT22;3823;53.586;10.040;2022-11-21T18:18:53;0.60;1.00
7564;DHT22;3823;53.586;10.040;2022-11-21T18:23:46;0.60;1.00
7564;DHT22;3823;53.586;10.040;2022-11-21T18:26:17;0.60;1.00
7564;DHT22;3823;53.586;10.040;2022-11-21T18:28:46;0.50;1.00
7564;DHT22;3823;53.586;10.040;2022-11-21T18:31:17;0.50;2.30
7564;DHT22;3823;53.586;10.040;2022-11-21T18:33:43;0.60;1.00
7564;DHT22;3823;53.586;10.040;2022-11-21T18:36:10;0.70;1.00
7564;DHT22;3823;53.586;10.040;2022-11-21T18:38:38;0.70;1.00
7564;DHT22;3823;53.586;10.040;2022-11-21T18:43:29;0.60;1.00
7564;DHT22;3823;53.586;10.040;2022-11-21T18:46:07;0.60;1.00
7564;DHT22;3823;53.586;10.040;2022-11-21T18:48:34;0.50;8.90
7564;DHT22;3823;53.586;10.040;2022-11-21T18:51:07;0.40;16.20
7564;DHT22;3823;53.586;10.040;2022-11-21T18:53:33;0.30;19.40